Surina — V7WD3 — position and weather

sailwx.info

Track history (hours):
 
Tides and Currents Weather Stations Pressure Air Temp Water Temp Dewpoint Dewpoint Depression Visibility Wind Speed Wind Dir Waves Ship Positions

Surina

Last reported at 2017-Nov-07 04:49 UTC. Time now 2017-Nov-24 03:28 UTC.
Position N 11°12' W 074°44'.
Warning: this ship's position is 16 days out of date.

Length 45 m; draft 2.3 m.

Type: Pleasure craft. MMSI: 538080080.

Date/timePositionNaut miles runAvg speedWind from/ knotsBaromVisibWave heightAir tempDewpointWater temp
2017-Nov-07 04:49N 11°12' W 074°44'3 9.1
2017-Nov-07 04:30N 11°11' W 074°47'510.0
2017-Nov-07 04:00N 11°09' W 074°51'54 9.1
2017-Nov-06 22:02N 10°33' W 075°33'2 9.2
2017-Nov-06 21:48N 10°31' W 075°33'3 9.1
2017-Nov-06 21:30N 10°28' W 075°34'4 9.0
2017-Nov-06 21:00N 10°24' W 075°34'0 0.5
2017-Nov-06 20:31N 10°24' W 075°34'15 0.7
2017-Nov-05 22:55N 10°10' W 075°40'0 0.0
2017-Nov-05 22:30N 10°10' W 075°40'0 0.0
2017-Nov-05 21:57N 10°10' W 075°40'0 0.2
2017-Nov-05 21:30N 10°10' W 075°40'1 2.0
2017-Nov-05 21:00N 10°10' W 075°39'0 0.0
2017-Nov-05 20:30N 10°11' W 075°39'0 0.0
2017-Nov-05 19:58N 10°10' W 075°39'4 9.1
2017-Nov-05 19:30N 10°15' W 075°38'510.5
2017-Nov-05 19:00N 10°19' W 075°35'4 8.6
2017-Nov-05 18:30N 10°22' W 075°32'3 5.3
2017-Nov-05 17:55N 10°25' W 075°33'0 0.0
2017-Nov-05 17:25N 10°25' W 075°33'0 0.0
2017-Nov-05 16:55N 10°25' W 075°33'0 0.0
2017-Nov-05 16:28N 10°25' W 075°33'0 0.0
2017-Nov-05 15:52N 10°25' W 075°33'0 0.0
2017-Nov-04 21:13N 10°25' W 075°33'0 0.0
2017-Nov-04 20:37N 10°25' W 075°33'0 0.0
2017-Nov-04 20:25N 10°25' W 075°33'0 0.0
2017-Nov-04 19:55N 10°25' W 075°33'0 0.0
2017-Nov-04 19:19N 10°25' W 075°33'0 0.0
2017-Nov-04 18:55N 10°25' W 075°33'0 0.0
2017-Nov-04 18:25N 10°25' W 075°33'0 0.0
2017-Nov-04 17:07N 10°25' W 075°33'0 0.0
2017-Nov-04 16:49N 10°25' W 075°33'0 0.0
2017-Nov-04 16:28N 10°25' W 075°33'0 0.0
2017-Nov-04 15:49N 10°25' W 075°33'0 0.0
2017-Nov-04 15:25N 10°25' W 075°33'0 0.0
2017-Nov-04 13:19N 10°25' W 075°33'0 0.0
2017-Nov-04 12:46N 10°25' W 075°33'0 0.0
2017-Nov-04 12:19N 10°25' W 075°33'0 0.0
2017-Nov-04 11:55N 10°25' W 075°33'0 0.0
2017-Nov-04 11:22N 10°25' W 075°33'0 0.0
2017-Nov-04 10:49N 10°25' W 075°33'0 0.0
2017-Nov-04 10:28N 10°25' W 075°33'0 0.0
2017-Nov-04 09:55N 10°25' W 075°33'0 0.0
2017-Nov-04 09:25N 10°25' W 075°33'0 0.0
2017-Nov-04 08:07N 10°25' W 075°33'0 0.0
2017-Nov-04 07:46N 10°25' W 075°33'0 0.0
2017-Nov-04 07:25N 10°25' W 075°33'0 0.0
2017-Nov-04 06:55N 10°25' W 075°33'0 0.0
2017-Nov-04 05:55N 10°25' W 075°33'0 0.0
2017-Nov-04 05:28N 10°25' W 075°33'0 0.0
2017-Nov-04 04:55N 10°25' W 075°33'  
Track history (hours):
 
Tides and Currents Weather Stations Pressure Air Temp Water Temp Dewpoint Dewpoint Depression Visibility Wind Speed Wind Dir Waves Ship Positions

Surina

Last reported at 2017-Nov-07 04:49 UTC. Time now 2017-Nov-24 03:28 UTC.
Position N 11°12' W 074°44'.
Warning: this ship's position is 16 days out of date.

Length 45 m; draft 2.3 m.

Type: Pleasure craft. MMSI: 538080080.

Date/timePositionNaut miles runAvg speedWind from/ knotsBaromVisibWave heightAir tempDewpointWater temp
2017-Nov-07 04:49N 11°12' W 074°44'3 9.1
2017-Nov-07 04:30N 11°11' W 074°47'510.0
2017-Nov-07 04:00N 11°09' W 074°51'54 9.1
2017-Nov-06 22:02N 10°33' W 075°33'2 9.2
2017-Nov-06 21:48N 10°31' W 075°33'3 9.1
2017-Nov-06 21:30N 10°28' W 075°34'4 9.0
2017-Nov-06 21:00N 10°24' W 075°34'0 0.5
2017-Nov-06 20:31N 10°24' W 075°34'15 0.7
2017-Nov-05 22:55N 10°10' W 075°40'0 0.0
2017-Nov-05 22:30N 10°10' W 075°40'0 0.0
2017-Nov-05 21:57N 10°10' W 075°40'0 0.2
2017-Nov-05 21:30N 10°10' W 075°40'1 2.0
2017-Nov-05 21:00N 10°10' W 075°39'0 0.0
2017-Nov-05 20:30N 10°11' W 075°39'0 0.0
2017-Nov-05 19:58N 10°10' W 075°39'4 9.1
2017-Nov-05 19:30N 10°15' W 075°38'510.5
2017-Nov-05 19:00N 10°19' W 075°35'4 8.6
2017-Nov-05 18:30N 10°22' W 075°32'3 5.3
2017-Nov-05 17:55N 10°25' W 075°33'0 0.0
2017-Nov-05 17:25N 10°25' W 075°33'0 0.0
2017-Nov-05 16:55N 10°25' W 075°33'0 0.0
2017-Nov-05 16:28N 10°25' W 075°33'0 0.0
2017-Nov-05 15:52N 10°25' W 075°33'0 0.0
2017-Nov-04 21:13N 10°25' W 075°33'0 0.0
2017-Nov-04 20:37N 10°25' W 075°33'0 0.0
2017-Nov-04 20:25N 10°25' W 075°33'0 0.0
2017-Nov-04 19:55N 10°25' W 075°33'0 0.0
2017-Nov-04 19:19N 10°25' W 075°33'0 0.0
2017-Nov-04 18:55N 10°25' W 075°33'0 0.0
2017-Nov-04 18:25N 10°25' W 075°33'0 0.0
2017-Nov-04 17:07N 10°25' W 075°33'0 0.0
2017-Nov-04 16:49N 10°25' W 075°33'0 0.0
2017-Nov-04 16:28N 10°25' W 075°33'0 0.0
2017-Nov-04 15:49N 10°25' W 075°33'0 0.0
2017-Nov-04 15:25N 10°25' W 075°33'0 0.0
2017-Nov-04 13:19N 10°25' W 075°33'0 0.0
2017-Nov-04 12:46N 10°25' W 075°33'0 0.0
2017-Nov-04 12:19N 10°25' W 075°33'0 0.0
2017-Nov-04 11:55N 10°25' W 075°33'0 0.0
2017-Nov-04 11:22N 10°25' W 075°33'0 0.0
2017-Nov-04 10:49N 10°25' W 075°33'0 0.0
2017-Nov-04 10:28N 10°25' W 075°33'0 0.0
2017-Nov-04 09:55N 10°25' W 075°33'0 0.0
2017-Nov-04 09:25N 10°25' W 075°33'0 0.0
2017-Nov-04 08:07N 10°25' W 075°33'0 0.0
2017-Nov-04 07:46N 10°25' W 075°33'0 0.0
2017-Nov-04 07:25N 10°25' W 075°33'0 0.0
2017-Nov-04 06:55N 10°25' W 075°33'0 0.0
2017-Nov-04 05:55N 10°25' W 075°33'0 0.0
2017-Nov-04 05:28N 10°25' W 075°33'0 0.0
2017-Nov-04 04:55N 10°25' W 075°33'  

Dump ship's entire track history